sensor_id;sensor_type;location;lat;lon;timestamp;temperature;humidity
18753;DHT22;9505;50.882;5.350;2023-08-01T00:01:35;17.00;99.90
18753;DHT22;9505;50.882;5.350;2023-08-01T00:04:00;17.00;99.90
18753;DHT22;9505;50.882;5.350;2023-08-01T00:06:26;17.00;99.90
18753;DHT22;9505;50.882;5.350;2023-08-01T00:08:52;17.10;99.90
18753;DHT22;9505;50.882;5.350;2023-08-01T00:11:17;17.00;99.90
18753;DHT22;9505;50.882;5.350;2023-08-01T00:13:43;16.90;99.90
18753;DHT22;9505;50.882;5.350;2023-08-01T00:16:09;16.90;99.90
18753;DHT22;9505;50.882;5.350;2023-08-01T00:18:35;16.90;99.90
18753;DHT22;9505;50.882;5.350;2023-08-01T00:21:01;16.80;99.90
18753;DHT22;9505;50.882;5.350;2023-08-01T00:23:27;16.80;99.90
18753;DHT22;9505;50.882;5.350;2023-08-01T00:25:53;16.80;99.90
18753;DHT22;9505;50.882;5.350;2023-08-01T00:28:18;16.80;99.90
18753;DHT22;9505;50.882;5.350;2023-08-01T00:30:44;16.80;99.90
18753;DHT22;9505;50.882;5.350;2023-08-01T00:33:10;16.80;99.90
18753;DHT22;9505;50.882;5.350;2023-08-01T00:35:35;16.80;99.90
18753;DHT22;9505;50.882;5.350;2023-08-01T00:38:01;16.80;99.90
18753;DHT22;9505;50.882;5.350;2023-08-01T00:40:31;16.70;99.90
18753;DHT22;9505;50.882;5.350;2023-08-01T00:42:57;16.70;99.90
18753;DHT22;9505;50.882;5.350;2023-08-01T00:45:23;16.70;99.90
18753;DHT22;9505;50.882;5.350;2023-08-01T00:47:51;16.70;99.90
18753;DHT22;9505;50.882;5.350;2023-08-01T00:50:18;16.60;99.90
18753;DHT22;9505;50.882;5.350;2023-08-01T00:52:46;16.60;99.90
18753;DHT22;9505;50.882;5.350;2023-08-01T00:55:12;16.60;99.90
18753;DHT22;9505;50.882;5.350;2023-08-01T00:57:38;16.70;99.90
18753;DHT22;9505;50.882;5.350;2023-08-01T01:00:04;16.60;99.90
18753;DHT22;9505;50.882;5.350;2023-08-01T01:02:30;16.60;99.90
18753;DHT22;9505;50.882;5.350;2023-08-01T01:04:56;16.70;99.90
18753;DHT22;9505;50.882;5.350;2023-08-01T01:07:22;16.70;99.90
18753;DHT22;9505;50.882;5.350;2023-08-01T01:09:50;16.60;99.90
18753;DHT22;9505;50.882;5.350;2023-08-01T01:12:16;16.50;99.90
18753;DHT22;9505;50.882;5.350;2023-08-01T01:14:41;16.60;99.90
18753;DHT22;9505;50.882;5.350;2023-08-01T01:17:07;16.60;99.90
18753;DHT22;9505;50.882;5.350;2023-08-01T01:19:33;16.50;99.90
18753;DHT22;9505;50.882;5.350;2023-08-01T01:21:58;16.50;99.90
18753;DHT22;9505;50.882;5.350;2023-08-01T01:24:25;16.50;99.90
18753;DHT22;9505;50.882;5.350;2023-08-01T01:26:54;16.40;99.90
18753;DHT22;9505;50.882;5.350;2023-08-01T01:29:21;16.50;99.90
18753;DHT22;9505;50.882;5.350;2023-08-01T01:31:48;16.50;99.90
18753;DHT22;9505;50.882;5.350;2023-08-01T01:34:14;16.50;99.90
18753;DHT22;9505;50.882;5.350;2023-08-01T01:36:40;16.50;99.90
18753;DHT22;9505;50.882;5.350;2023-08-01T01:39:06;16.40;99.90
18753;DHT22;9505;50.882;5.350;2023-08-01T01:41:31;16.40;99.90
18753;DHT22;9505;50.882;5.350;2023-08-01T01:43:57;16.30;99.90
18753;DHT22;9505;50.882;5.350;2023-08-01T01:46:23;16.20;99.90
18753;DHT22;9505;50.882;5.350;2023-08-01T01:48:48;16.20;99.90
18753;DHT22;9505;50.882;5.350;2023-08-01T01:51:14;16.20;99.90
18753;DHT22;9505;50.882;5.350;2023-08-01T01:53:40;16.10;99.90
18753;DHT22;9505;50.882;5.350;2023-08-01T01:56:05;16.10;99.90
18753;DHT22;9505;50.882;5.350;2023-08-01T01:58:31;16.20;99.90
18753;DHT22;9505;50.882;5.350;2023-08-01T02:00:56;16.20;99.90
18753;DHT22;9505;50.882;5.350;2023-08-01T02:03:22;16.20;99.90
18753;DHT22;9505;50.882;5.350;2023-08-01T02:05:48;16.20;99.90
18753;DHT22;9505;50.882;5.350;2023-08-01T02:08:14;16.10;99.90
18753;DHT22;9505;50.882;5.350;2023-08-01T02:10:39;16.10;99.90
18753;DHT22;9505;50.882;5.350;2023-08-01T02:13:05;16.10;99.90
18753;DHT22;9505;50.882;5.350;2023-08-01T02:15:30;16.00;99.90
18753;DHT22;9505;50.882;5.350;2023-08-01T02:17:57;16.00;99.90
18753;DHT22;9505;50.882;5.350;2023-08-01T02:20:23;16.00;99.90
18753;DHT22;9505;50.882;5.350;2023-08-01T02:22:49;16.00;99.90
18753;DHT22;9505;50.882;5.350;2023-08-01T02:25:14;16.00;99.90
18753;DHT22;9505;50.882;5.350;2023-08-01T02:27:40;16.00;99.90
18753;DHT22;9505;50.882;5.350;2023-08-01T02:30:06;16.00;99.90
18753;DHT22;9505;50.882;5.350;2023-08-01T02:32:32;16.00;99.90
18753;DHT22;9505;50.882;5.350;2023-08-01T02:34:57;16.00;99.90
18753;DHT22;9505;50.882;5.350;2023-08-01T02:37:23;16.00;99.90
18753;DHT22;9505;50.882;5.350;2023-08-01T02:39:49;16.00;99.90
18753;DHT22;9505;50.882;5.350;2023-08-01T02:42:15;16.00;99.90
18753;DHT22;9505;50.882;5.350;2023-08-01T02:44:40;16.00;99.90
18753;DHT22;9505;50.882;5.350;2023-08-01T02:47:06;16.00;99.90
18753;DHT22;9505;50.882;5.350;2023-08-01T02:49:32;16.00;99.90
18753;DHT22;9505;50.882;5.350;2023-08-01T02:51:58;16.00;99.90
18753;DHT22;9505;50.882;5.350;2023-08-01T02:54:24;16.00;99.90
18753;DHT22;9505;50.882;5.350;2023-08-01T02:56:50;16.10;99.90
18753;DHT22;9505;50.882;5.350;2023-08-01T02:59:16;16.10;99.90
18753;DHT22;9505;50.882;5.350;2023-08-01T03:01:43;16.00;99.90
18753;DHT22;9505;50.882;5.350;2023-08-01T03:04:09;16.00;99.90
18753;DHT22;9505;50.882;5.350;2023-08-01T03:06:37;16.00;99.90
18753;DHT22;9505;50.882;5.350;2023-08-01T03:09:03;16.00;99.90
18753;DHT22;9505;50.882;5.350;2023-08-01T03:11:33;16.10;99.90
18753;DHT22;9505;50.882;5.350;2023-08-01T03:14:00;16.00;99.90
18753;DHT22;9505;50.882;5.350;2023-08-01T03:16:26;16.10;99.90
18753;DHT22;9505;50.882;5.350;2023-08-01T03:18:51;16.10;99.90
18753;DHT22;9505;50.882;5.350;2023-08-01T03:21:17;16.10;99.90
18753;DHT22;9505;50.882;5.350;2023-08-01T03:23:43;16.10;99.90
18753;DHT22;9505;50.882;5.350;2023-08-01T03:26:09;16.10;99.90
18753;DHT22;9505;50.882;5.350;2023-08-01T03:28:34;16.10;99.90
18753;DHT22;9505;50.882;5.350;2023-08-01T03:31:00;16.00;99.90
18753;DHT22;9505;50.882;5.350;2023-08-01T03:33:26;16.00;99.90
18753;DHT22;9505;50.882;5.350;2023-08-01T03:35:52;16.00;99.90
18753;DHT22;9505;50.882;5.350;2023-08-01T03:38:17;16.00;99.90
18753;DHT22;9505;50.882;5.350;2023-08-01T03:40:43;16.00;99.90
18753;DHT22;9505;50.882;5.350;2023-08-01T03:43:09;16.00;99.90
18753;DHT22;9505;50.882;5.350;2023-08-01T03:45:35;15.90;99.90
18753;DHT22;9505;50.882;5.350;2023-08-01T03:48:01;15.90;99.90
18753;DHT22;9505;50.882;5.350;2023-08-01T03:50:27;15.90;99.90
18753;DHT22;9505;50.882;5.350;2023-08-01T03:52:52;16.00;99.90
18753;DHT22;9505;50.882;5.350;2023-08-01T03:55:18;15.90;99.90
18753;DHT22;9505;50.882;5.350;2023-08-01T03:57:44;15.90;99.90
18753;DHT22;9505;50.882;5.350;2023-08-01T04:00:10;15.90;99.90
18753;DHT22;9505;50.882;5.350;2023-08-01T04:02:41;15.90;99.90
18753;DHT22;9505;50.882;5.350;2023-08-01T04:05:08;15.90;99.90
18753;DHT22;9505;50.882;5.350;2023-08-01T04:07:35;15.90;99.90
18753;DHT22;9505;50.882;5.350;2023-08-01T04:10:02;15.80;99.90
18753;DHT22;9505;50.882;5.350;2023-08-01T04:12:28;15.80;99.90
18753;DHT22;9505;50.882;5.350;2023-08-01T04:14:54;15.80;99.90
18753;DHT22;9505;50.882;5.350;2023-08-01T04:17:19;15.80;99.90
18753;DHT22;9505;50.882;5.350;2023-08-01T04:19:45;15.80;99.90
18753;DHT22;9505;50.882;5.350;2023-08-01T04:22:10;15.80;99.90
18753;DHT22;9505;50.882;5.350;2023-08-01T04:24:36;15.90;99.90
18753;DHT22;9505;50.882;5.350;2023-08-01T04:27:02;15.90;99.90
18753;DHT22;9505;50.882;5.350;2023-08-01T04:29:27;15.90;99.90
18753;DHT22;9505;50.882;5.350;2023-08-01T04:31:53;15.90;99.90
18753;DHT22;9505;50.882;5.350;2023-08-01T04:34:19;15.90;99.90
18753;DHT22;9505;50.882;5.350;2023-08-01T04:36:44;15.80;99.90
18753;DHT22;9505;50.882;5.350;2023-08-01T04:39:10;15.80;99.90
18753;DHT22;9505;50.882;5.350;2023-08-01T04:41:36;15.80;99.90
18753;DHT22;9505;50.882;5.350;2023-08-01T04:44:01;15.70;99.90
18753;DHT22;9505;50.882;5.350;2023-08-01T04:46:27;15.70;99.90
18753;DHT22;9505;50.882;5.350;2023-08-01T04:48:52;15.80;99.90
18753;DHT22;9505;50.882;5.350;2023-08-01T04:51:18;15.70;99.90
18753;DHT22;9505;50.882;5.350;2023-08-01T04:53:44;15.90;99.90
18753;DHT22;9505;50.882;5.350;2023-08-01T04:56:09;15.90;99.90
18753;DHT22;9505;50.882;5.350;2023-08-01T04:58:35;15.90;99.90
18753;DHT22;9505;50.882;5.350;2023-08-01T05:01:00;16.00;99.90
18753;DHT22;9505;50.882;5.350;2023-08-01T05:03:26;16.00;99.90
18753;DHT22;9505;50.882;5.350;2023-08-01T05:05:52;16.00;99.90
18753;DHT22;9505;50.882;5.350;2023-08-01T05:08:17;16.00;99.90
18753;DHT22;9505;50.882;5.350;2023-08-01T05:10:43;16.00;99.90
18753;DHT22;9505;50.882;5.350;2023-08-01T05:13:08;16.00;99.90
18753;DHT22;9505;50.882;5.350;2023-08-01T05:15:34;15.90;99.90
18753;DHT22;9505;50.882;5.350;2023-08-01T05:18:00;15.90;99.90
18753;DHT22;9505;50.882;5.350;2023-08-01T05:20:25;16.10;99.90
18753;DHT22;9505;50.882;5.350;2023-08-01T05:22:59;16.20;99.90
18753;DHT22;9505;50.882;5.350;2023-08-01T05:25:24;16.40;99.90
18753;DHT22;9505;50.882;5.350;2023-08-01T05:27:50;16.50;99.90
18753;DHT22;9505;50.882;5.350;2023-08-01T05:30:16;16.60;99.90
18753;DHT22;9505;50.882;5.350;2023-08-01T05:32:42;16.50;99.90
18753;DHT22;9505;50.882;5.350;2023-08-01T05:35:10;16.50;99.90
18753;DHT22;9505;50.882;5.350;2023-08-01T05:37:35;16.60;99.90
18753;DHT22;9505;50.882;5.350;2023-08-01T05:40:03;16.40;99.90
18753;DHT22;9505;50.882;5.350;2023-08-01T05:42:29;16.40;99.90
18753;DHT22;9505;50.882;5.350;2023-08-01T05:44:54;16.50;99.90
18753;DHT22;9505;50.882;5.350;2023-08-01T05:47:20;16.60;99.90
18753;DHT22;9505;50.882;5.350;2023-08-01T05:49:48;17.50;99.90
18753;DHT22;9505;50.882;5.350;2023-08-01T05:52:14;18.90;99.90
18753;DHT22;9505;50.882;5.350;2023-08-01T05:54:39;18.70;99.90
18753;DHT22;9505;50.882;5.350;2023-08-01T05:57:05;18.00;99.90
18753;DHT22;9505;50.882;5.350;2023-08-01T05:59:31;17.80;99.90
18753;DHT22;9505;50.882;5.350;2023-08-01T06:01:57;17.70;99.90
18753;DHT22;9505;50.882;5.350;2023-08-01T06:04:22;17.20;99.90
18753;DHT22;9505;50.882;5.350;2023-08-01T06:06:48;16.90;99.90
18753;DHT22;9505;50.882;5.350;2023-08-01T06:09:14;16.90;99.90
18753;DHT22;9505;50.882;5.350;2023-08-01T06:11:39;16.90;99.90
18753;DHT22;9505;50.882;5.350;2023-08-01T06:14:05;16.90;99.90
18753;DHT22;9505;50.882;5.350;2023-08-01T06:16:31;16.70;99.90
18753;DHT22;9505;50.882;5.350;2023-08-01T06:18:56;16.70;99.90
18753;DHT22;9505;50.882;5.350;2023-08-01T06:21:22;16.60;99.90
18753;DHT22;9505;50.882;5.350;2023-08-01T06:23:48;16.60;99.90
18753;DHT22;9505;50.882;5.350;2023-08-01T06:26:13;16.60;99.90
18753;DHT22;9505;50.882;5.350;2023-08-01T06:28:41;16.80;99.90
18753;DHT22;9505;50.882;5.350;2023-08-01T06:31:07;16.90;99.90
18753;DHT22;9505;50.882;5.350;2023-08-01T06:33:32;16.80;99.90
18753;DHT22;9505;50.882;5.350;2023-08-01T06:35:58;16.80;99.90
18753;DHT22;9505;50.882;5.350;2023-08-01T06:38:24;16.90;99.90
18753;DHT22;9505;50.882;5.350;2023-08-01T06:40:49;16.90;99.90
18753;DHT22;9505;50.882;5.350;2023-08-01T06:43:15;16.90;99.90
18753;DHT22;9505;50.882;5.350;2023-08-01T06:45:40;17.00;99.90
18753;DHT22;9505;50.882;5.350;2023-08-01T06:48:06;17.30;99.90
18753;DHT22;9505;50.882;5.350;2023-08-01T06:50:32;17.50;99.90
18753;DHT22;9505;50.882;5.350;2023-08-01T06:52:57;17.80;99.90
18753;DHT22;9505;50.882;5.350;2023-08-01T06:55:23;17.60;99.90
18753;DHT22;9505;50.882;5.350;2023-08-01T06:57:48;17.40;99.90
18753;DHT22;9505;50.882;5.350;2023-08-01T07:00:14;17.30;99.90
18753;DHT22;9505;50.882;5.350;2023-08-01T07:02:40;17.30;99.90
18753;DHT22;9505;50.882;5.350;2023-08-01T07:05:06;17.40;99.90
18753;DHT22;9505;50.882;5.350;2023-08-01T07:07:31;17.50;99.90
18753;DHT22;9505;50.882;5.350;2023-08-01T07:09:57;17.50;99.90
18753;DHT22;9505;50.882;5.350;2023-08-01T07:12:23;17.60;99.90
18753;DHT22;9505;50.882;5.350;2023-08-01T07:14:48;17.40;99.90
18753;DHT22;9505;50.882;5.350;2023-08-01T07:17:14;17.30;99.90
18753;DHT22;9505;50.882;5.350;2023-08-01T07:19:40;17.30;99.90
18753;DHT22;9505;50.882;5.350;2023-08-01T07:22:05;17.30;99.90
18753;DHT22;9505;50.882;5.350;2023-08-01T07:24:31;17.40;99.90
18753;DHT22;9505;50.882;5.350;2023-08-01T07:26:56;17.50;99.90
18753;DHT22;9505;50.882;5.350;2023-08-01T07:29:22;17.60;99.90
18753;DHT22;9505;50.882;5.350;2023-08-01T07:31:48;17.80;99.90
18753;DHT22;9505;50.882;5.350;2023-08-01T07:34:13;17.80;99.90
18753;DHT22;9505;50.882;5.350;2023-08-01T07:36:39;17.90;99.90
18753;DHT22;9505;50.882;5.350;2023-08-01T07:39:05;17.90;99.90
18753;DHT22;9505;50.882;5.350;2023-08-01T07:41:30;18.20;99.90
18753;DHT22;9505;50.882;5.350;2023-08-01T07:43:56;18.40;99.90
18753;DHT22;9505;50.882;5.350;2023-08-01T07:46:21;18.70;99.90
18753;DHT22;9505;50.882;5.350;2023-08-01T07:48:47;19.00;99.90
18753;DHT22;9505;50.882;5.350;2023-08-01T07:51:14;19.90;99.90
18753;DHT22;9505;50.882;5.350;2023-08-01T07:53:40;21.10;99.90
18753;DHT22;9505;50.882;5.350;2023-08-01T07:56:05;21.30;99.90
18753;DHT22;9505;50.882;5.350;2023-08-01T07:58:33;20.60;99.90
18753;DHT22;9505;50.882;5.350;2023-08-01T08:01:04;20.80;99.90
18753;DHT22;9505;50.882;5.350;2023-08-01T08:03:30;21.40;99.90
18753;DHT22;9505;50.882;5.350;2023-08-01T08:05:55;21.60;99.90
18753;DHT22;9505;50.882;5.350;2023-08-01T08:08:21;21.70;99.90
18753;DHT22;9505;50.882;5.350;2023-08-01T08:10:47;21.60;99.90
18753;DHT22;9505;50.882;5.350;2023-08-01T08:13:12;21.60;99.90
18753;DHT22;9505;50.882;5.350;2023-08-01T08:15:38;20.90;99.90
18753;DHT22;9505;50.882;5.350;2023-08-01T08:18:03;20.30;99.90
18753;DHT22;9505;50.882;5.350;2023-08-01T08:20:41;20.00;99.90
18753;DHT22;9505;50.882;5.350;2023-08-01T08:23:07;19.60;99.90
18753;DHT22;9505;50.882;5.350;2023-08-01T08:25:32;18.90;99.90
18753;DHT22;9505;50.882;5.350;2023-08-01T08:27:59;18.60;99.90
18753;DHT22;9505;50.882;5.350;2023-08-01T08:30:24;18.50;99.90
18753;DHT22;9505;50.882;5.350;2023-08-01T08:32:50;18.40;99.90
18753;DHT22;9505;50.882;5.350;2023-08-01T08:35:16;18.50;99.90
18753;DHT22;9505;50.882;5.350;2023-08-01T08:37:41;18.30;99.90
18753;DHT22;9505;50.882;5.350;2023-08-01T08:40:08;18.40;99.90
18753;DHT22;9505;50.882;5.350;2023-08-01T08:42:34;18.70;99.90
18753;DHT22;9505;50.882;5.350;2023-08-01T08:45:01;18.80;99.90
18753;DHT22;9505;50.882;5.350;2023-08-01T08:47:28;18.80;99.90
18753;DHT22;9505;50.882;5.350;2023-08-01T08:49:56;18.90;99.90
18753;DHT22;9505;50.882;5.350;2023-08-01T08:52:25;19.30;99.90
18753;DHT22;9505;50.882;5.350;2023-08-01T08:54:52;19.60;99.90
18753;DHT22;9505;50.882;5.350;2023-08-01T08:57:19;19.50;99.90
18753;DHT22;9505;50.882;5.350;2023-08-01T08:59:46;19.40;99.90
18753;DHT22;9505;50.882;5.350;2023-08-01T09:02:15;18.90;99.90
18753;DHT22;9505;50.882;5.350;2023-08-01T09:04:41;18.90;99.90
18753;DHT22;9505;50.882;5.350;2023-08-01T09:07:09;19.40;99.90
18753;DHT22;9505;50.882;5.350;2023-08-01T09:09:35;20.20;99.90
18753;DHT22;9505;50.882;5.350;2023-08-01T09:12:02;20.40;99.90
18753;DHT22;9505;50.882;5.350;2023-08-01T09:14:28;20.50;99.90
18753;DHT22;9505;50.882;5.350;2023-08-01T09:16:54;20.60;99.90
18753;DHT22;9505;50.882;5.350;2023-08-01T09:19:23;20.80;99.90
18753;DHT22;9505;50.882;5.350;2023-08-01T09:21:50;21.10;99.90
18753;DHT22;9505;50.882;5.350;2023-08-01T09:24:18;21.30;99.90
18753;DHT22;9505;50.882;5.350;2023-08-01T09:26:45;21.00;99.90
18753;DHT22;9505;50.882;5.350;2023-08-01T09:29:11;21.00;99.90
18753;DHT22;9505;50.882;5.350;2023-08-01T09:31:39;20.90;99.90
18753;DHT22;9505;50.882;5.350;2023-08-01T09:34:06;20.30;99.90
18753;DHT22;9505;50.882;5.350;2023-08-01T09:36:42;20.30;99.90
18753;DHT22;9505;50.882;5.350;2023-08-01T09:39:08;20.60;99.90
18753;DHT22;9505;50.882;5.350;2023-08-01T09:41:34;21.10;99.90
18753;DHT22;9505;50.882;5.350;2023-08-01T09:43:59;21.20;99.90
18753;DHT22;9505;50.882;5.350;2023-08-01T09:46:25;20.90;99.90
18753;DHT22;9505;50.882;5.350;2023-08-01T09:48:51;21.30;99.90
18753;DHT22;9505;50.882;5.350;2023-08-01T09:51:18;21.50;99.90
18753;DHT22;9505;50.882;5.350;2023-08-01T09:56:18;20.60;99.90
18753;DHT22;9505;50.882;5.350;2023-08-01T09:58:45;20.30;99.90
18753;DHT22;9505;50.882;5.350;2023-08-01T10:01:16;20.40;99.90
18753;DHT22;9505;50.882;5.350;2023-08-01T10:03:45;20.40;99.90
18753;DHT22;9505;50.882;5.350;2023-08-01T10:06:17;20.40;99.90
18753;DHT22;9505;50.882;5.350;2023-08-01T10:08:45;20.00;99.90
18753;DHT22;9505;50.882;5.350;2023-08-01T10:11:12;19.90;99.90
18753;DHT22;9505;50.882;5.350;2023-08-01T10:13:43;19.90;99.90
18753;DHT22;9505;50.882;5.350;2023-08-01T10:16:13;20.10;99.90
18753;DHT22;9505;50.882;5.350;2023-08-01T10:18:40;20.60;99.90
18753;DHT22;9505;50.882;5.350;2023-08-01T10:21:07;21.60;99.90
18753;DHT22;9505;50.882;5.350;2023-08-01T10:23:34;22.10;99.90
18753;DHT22;9505;50.882;5.350;2023-08-01T10:26:03;21.60;99.90
18753;DHT22;9505;50.882;5.350;2023-08-01T10:28:39;21.40;99.90
18753;DHT22;9505;50.882;5.350;2023-08-01T10:31:11;21.50;99.90
18753;DHT22;9505;50.882;5.350;2023-08-01T10:33:39;21.60;99.90
18753;DHT22;9505;50.882;5.350;2023-08-01T10:36:19;21.60;99.90
18753;DHT22;9505;50.882;5.350;2023-08-01T10:38:52;21.60;99.90
18753;DHT22;9505;50.882;5.350;2023-08-01T10:44:03;22.00;99.90
18753;DHT22;9505;50.882;5.350;2023-08-01T10:46:29;22.30;99.90
18753;DHT22;9505;50.882;5.350;2023-08-01T10:49:10;22.20;99.90
18753;DHT22;9505;50.882;5.350;2023-08-01T10:51:35;22.10;99.90
18753;DHT22;9505;50.882;5.350;2023-08-01T10:54:01;21.70;99.90
18753;DHT22;9505;50.882;5.350;2023-08-01T10:56:28;21.80;99.90
18753;DHT22;9505;50.882;5.350;2023-08-01T10:58:54;22.10;99.90
18753;DHT22;9505;50.882;5.350;2023-08-01T11:01:20;22.80;99.90
18753;DHT22;9505;50.882;5.350;2023-08-01T11:03:45;23.30;99.90
18753;DHT22;9505;50.882;5.350;2023-08-01T11:06:11;23.70;99.90
18753;DHT22;9505;50.882;5.350;2023-08-01T11:08:38;23.10;99.90
18753;DHT22;9505;50.882;5.350;2023-08-01T11:11:11;22.00;99.90
18753;DHT22;9505;50.882;5.350;2023-08-01T11:13:37;21.80;99.90
18753;DHT22;9505;50.882;5.350;2023-08-01T11:16:05;21.40;99.90
18753;DHT22;9505;50.882;5.350;2023-08-01T11:18:44;21.50;99.90
18753;DHT22;9505;50.882;5.350;2023-08-01T11:21:10;21.60;99.90
18753;DHT22;9505;50.882;5.350;2023-08-01T11:23:35;21.30;99.90
18753;DHT22;9505;50.882;5.350;2023-08-01T11:26:08;21.70;99.90
18753;DHT22;9505;50.882;5.350;2023-08-01T11:28:34;22.20;99.90
18753;DHT22;9505;50.882;5.350;2023-08-01T11:30:59;22.30;99.90
18753;DHT22;9505;50.882;5.350;2023-08-01T11:33:25;22.20;99.90
18753;DHT22;9505;50.882;5.350;2023-08-01T11:35:55;22.20;99.90
18753;DHT22;9505;50.882;5.350;2023-08-01T11:38:23;22.50;99.90
18753;DHT22;9505;50.882;5.350;2023-08-01T11:40:51;22.70;99.90
18753;DHT22;9505;50.882;5.350;2023-08-01T11:43:16;22.80;99.90
18753;DHT22;9505;50.882;5.350;2023-08-01T11:45:56;22.80;99.90
18753;DHT22;9505;50.882;5.350;2023-08-01T11:48:24;23.10;99.90
18753;DHT22;9505;50.882;5.350;2023-08-01T11:50:57;23.00;99.90
18753;DHT22;9505;50.882;5.350;2023-08-01T11:53:23;22.90;99.90
18753;DHT22;9505;50.882;5.350;2023-08-01T11:55:50;23.10;99.90
18753;DHT22;9505;50.882;5.350;2023-08-01T11:58:31;22.60;99.90
18753;DHT22;9505;50.882;5.350;2023-08-01T12:01:06;22.20;99.90
18753;DHT22;9505;50.882;5.350;2023-08-01T12:03:32;22.20;99.90
18753;DHT22;9505;50.882;5.350;2023-08-01T12:06:07;22.30;99.90
18753;DHT22;9505;50.882;5.350;2023-08-01T12:08:33;22.50;99.90
18753;DHT22;9505;50.882;5.350;2023-08-01T12:10:59;22.50;99.90
18753;DHT22;9505;50.882;5.350;2023-08-01T12:13:26;22.60;99.90
18753;DHT22;9505;50.882;5.350;2023-08-01T12:15:54;21.90;99.90
18753;DHT22;9505;50.882;5.350;2023-08-01T12:18:26;21.60;99.90
18753;DHT22;9505;50.882;5.350;2023-08-01T12:20:52;21.50;99.90
18753;DHT22;9505;50.882;5.350;2023-08-01T12:23:18;21.20;99.90
18753;DHT22;9505;50.882;5.350;2023-08-01T12:25:44;20.80;99.90
18753;DHT22;9505;50.882;5.350;2023-08-01T12:28:12;20.70;99.90
18753;DHT22;9505;50.882;5.350;2023-08-01T12:30:43;20.90;99.90
18753;DHT22;9505;50.882;5.350;2023-08-01T12:33:09;21.40;99.90
18753;DHT22;9505;50.882;5.350;2023-08-01T12:35:39;22.00;99.90
18753;DHT22;9505;50.882;5.350;2023-08-01T12:38:05;22.10;99.90
18753;DHT22;9505;50.882;5.350;2023-08-01T12:40:30;21.80;99.90
18753;DHT22;9505;50.882;5.350;2023-08-01T12:42:56;21.70;99.90
18753;DHT22;9505;50.882;5.350;2023-08-01T12:45:22;21.20;99.90
18753;DHT22;9505;50.882;5.350;2023-08-01T12:47:48;20.70;99.90
18753;DHT22;9505;50.882;5.350;2023-08-01T12:50:14;20.40;99.90
18753;DHT22;9505;50.882;5.350;2023-08-01T12:52:40;20.20;99.90
18753;DHT22;9505;50.882;5.350;2023-08-01T12:55:06;20.10;99.90
18753;DHT22;9505;50.882;5.350;2023-08-01T12:57:31;20.00;99.90
18753;DHT22;9505;50.882;5.350;2023-08-01T12:59:57;20.30;99.90
18753;DHT22;9505;50.882;5.350;2023-08-01T13:02:22;20.70;99.90
18753;DHT22;9505;50.882;5.350;2023-08-01T13:04:48;21.20;99.90
18753;DHT22;9505;50.882;5.350;2023-08-01T13:07:14;21.60;99.90
18753;DHT22;9505;50.882;5.350;2023-08-01T13:09:39;21.60;99.90
18753;DHT22;9505;50.882;5.350;2023-08-01T13:12:06;21.90;99.90
18753;DHT22;9505;50.882;5.350;2023-08-01T13:14:31;22.40;99.90
18753;DHT22;9505;50.882;5.350;2023-08-01T13:16:57;22.30;99.90
18753;DHT22;9505;50.882;5.350;2023-08-01T13:19:24;22.20;99.90
18753;DHT22;9505;50.882;5.350;2023-08-01T13:21:50;22.10;99.90
18753;DHT22;9505;50.882;5.350;2023-08-01T13:24:16;21.90;99.90
18753;DHT22;9505;50.882;5.350;2023-08-01T13:26:42;21.90;99.90
18753;DHT22;9505;50.882;5.350;2023-08-01T13:29:07;21.80;99.90
18753;DHT22;9505;50.882;5.350;2023-08-01T13:31:33;21.40;99.90
18753;DHT22;9505;50.882;5.350;2023-08-01T13:33:58;20.80;99.90
18753;DHT22;9505;50.882;5.350;2023-08-01T13:36:24;20.50;99.90
18753;DHT22;9505;50.882;5.350;2023-08-01T13:38:50;20.50;99.90
18753;DHT22;9505;50.882;5.350;2023-08-01T13:41:16;20.60;99.90
18753;DHT22;9505;50.882;5.350;2023-08-01T13:43:42;20.60;99.90
18753;DHT22;9505;50.882;5.350;2023-08-01T13:46:15;20.60;99.90
18753;DHT22;9505;50.882;5.350;2023-08-01T13:48:42;20.60;99.90
18753;DHT22;9505;50.882;5.350;2023-08-01T13:51:08;20.40;99.90
18753;DHT22;9505;50.882;5.350;2023-08-01T13:53:33;20.00;99.90
18753;DHT22;9505;50.882;5.350;2023-08-01T13:55:59;19.90;99.90
18753;DHT22;9505;50.882;5.350;2023-08-01T13:58:25;19.80;99.90
18753;DHT22;9505;50.882;5.350;2023-08-01T14:00:51;19.70;99.90
18753;DHT22;9505;50.882;5.350;2023-08-01T14:03:16;19.80;99.90
18753;DHT22;9505;50.882;5.350;2023-08-01T14:05:42;19.70;99.90
18753;DHT22;9505;50.882;5.350;2023-08-01T14:08:08;19.50;99.90
18753;DHT22;9505;50.882;5.350;2023-08-01T14:10:33;19.60;99.90
18753;DHT22;9505;50.882;5.350;2023-08-01T14:12:59;19.70;99.90
18753;DHT22;9505;50.882;5.350;2023-08-01T14:15:24;20.00;99.90
18753;DHT22;9505;50.882;5.350;2023-08-01T14:17:50;20.20;99.90
18753;DHT22;9505;50.882;5.350;2023-08-01T14:20:17;20.50;99.90
18753;DHT22;9505;50.882;5.350;2023-08-01T14:22:43;21.00;99.90
18753;DHT22;9505;50.882;5.350;2023-08-01T14:25:09;21.50;99.90
18753;DHT22;9505;50.882;5.350;2023-08-01T14:27:35;22.60;99.90
18753;DHT22;9505;50.882;5.350;2023-08-01T14:30:01;22.60;99.90
18753;DHT22;9505;50.882;5.350;2023-08-01T14:32:28;22.30;99.90
18753;DHT22;9505;50.882;5.350;2023-08-01T14:34:53;22.00;99.90
18753;DHT22;9505;50.882;5.350;2023-08-01T14:37:19;21.70;99.90
18753;DHT22;9505;50.882;5.350;2023-08-01T14:39:49;22.00;99.90
18753;DHT22;9505;50.882;5.350;2023-08-01T14:42:15;22.90;99.90
18753;DHT22;9505;50.882;5.350;2023-08-01T14:44:41;23.40;99.90
18753;DHT22;9505;50.882;5.350;2023-08-01T14:47:07;23.30;99.90
18753;DHT22;9505;50.882;5.350;2023-08-01T14:49:32;22.70;99.90
18753;DHT22;9505;50.882;5.350;2023-08-01T14:51:58;22.30;99.90
18753;DHT22;9505;50.882;5.350;2023-08-01T14:54:24;22.20;99.90
18753;DHT22;9505;50.882;5.350;2023-08-01T14:56:53;21.90;99.90
18753;DHT22;9505;50.882;5.350;2023-08-01T14:59:18;21.90;99.90
18753;DHT22;9505;50.882;5.350;2023-08-01T15:01:44;21.60;99.90
18753;DHT22;9505;50.882;5.350;2023-08-01T15:04:10;21.30;99.90
18753;DHT22;9505;50.882;5.350;2023-08-01T15:06:35;20.90;99.90
18753;DHT22;9505;50.882;5.350;2023-08-01T15:09:01;20.70;99.90
18753;DHT22;9505;50.882;5.350;2023-08-01T15:11:26;20.50;99.90
18753;DHT22;9505;50.882;5.350;2023-08-01T15:13:52;20.40;99.90
18753;DHT22;9505;50.882;5.350;2023-08-01T15:16:18;20.20;99.90
18753;DHT22;9505;50.882;5.350;2023-08-01T15:18:44;20.00;99.90
18753;DHT22;9505;50.882;5.350;2023-08-01T15:21:10;19.80;99.90
18753;DHT22;9505;50.882;5.350;2023-08-01T15:23:35;19.80;99.90
18753;DHT22;9505;50.882;5.350;2023-08-01T15:26:01;19.80;99.90
18753;DHT22;9505;50.882;5.350;2023-08-01T15:28:27;19.80;99.90
18753;DHT22;9505;50.882;5.350;2023-08-01T15:31:06;19.80;99.90
18753;DHT22;9505;50.882;5.350;2023-08-01T15:33:33;19.60;99.90
18753;DHT22;9505;50.882;5.350;2023-08-01T15:36:00;19.30;99.90
18753;DHT22;9505;50.882;5.350;2023-08-01T15:38:26;19.00;99.90
18753;DHT22;9505;50.882;5.350;2023-08-01T15:40:52;18.90;99.90
18753;DHT22;9505;50.882;5.350;2023-08-01T15:43:19;18.60;99.90
18753;DHT22;9505;50.882;5.350;2023-08-01T15:45:45;18.40;99.90